PDT,Max TemperatureF,Mean TemperatureF,Min TemperatureF,Max Dew PointF,MeanDew PointF,Min DewpointF,Max Humidity, Mean Humidity, Min Humidity, Max Sea Level PressureIn, Mean Sea Level PressureIn, Min Sea Level PressureIn, Max VisibilityMiles, Mean VisibilityMiles, Min VisibilityMiles, Max Wind SpeedMPH, Mean Wind SpeedMPH, Max Gust SpeedMPH,PrecipitationIn, CloudCover, Events, WindDirDegrees
2013-6-1,102,77,51,43,39,32,64,37,9,29.91,29.82,29.71,10,10,10,17,5,20,0.00,0,,330
2013-6-2,86,71,55,53,48,42,86,57,27,29.80,29.74,29.69,10,10,10,26,10,32,0.00,1,,223
2013-6-3,72,64,55,52,51,50,86,68,49,29.86,29.82,29.76,10,10,10,18,10,22,0.00,4,,228
2013-6-4,76,64,51,52,51,47,86,65,43,29.96,29.90,29.86,10,10,10,23,11,31,0.00,2,,209
2013-6-5,82,67,51,52,50,48,89,63,36,29.99,29.94,29.87,10,10,10,25,8,31,0.00,0,,240
2013-6-6,87,69,50,52,49,46,89,59,28,29.95,29.90,29.81,10,10,9,26,8,33,0.00,1,,249
2013-6-7,105,78,51,53,51,47,89,54,18,29.89,29.79,29.68,10,10,10,15,4,,0.00,0,,238
2013-6-8,91,74,56,54,52,49,86,57,28,29.85,29.76,29.71,10,10,10,30,9,37,0.00,0,,197
2013-6-9,78,67,55,54,52,51,86,63,40,29.88,29.85,29.82,10,10,10,29,13,35,0.00,1,,198
2013-6-10,77,66,55,52,51,50,86,64,41,29.95,29.91,29.87,10,10,10,18,6,22,0.00,3,,212
2013-6-11,92,73,53,52,51,49,86,55,24,29.96,29.90,29.83,10,10,10,20,6,24,0.00,0,,244
2013-6-12,87,68,49,52,46,34,83,53,23,29.98,29.93,29.90,10,10,10,24,10,30,0.00,0,,258
2013-6-13,92,70,47,44,38,23,86,48,9,30.06,29.99,29.91,10,10,10,23,9,26,0.00,0,,317
2013-6-14,93,68,43,43,34,10,76,41,5,29.95,29.87,29.77,10,10,10,16,6,22,0.00,0,,303
2013-6-15,76,62,48,47,43,35,77,56,35,29.99,29.89,29.83,10,10,10,24,10,29,0.00,0,,227
2013-6-16,95,71,47,47,43,30,93,52,11,30.06,30.02,29.94,10,8,0,29,11,36,0.00,2,Fog,332
2013-6-17,94,74,54,50,44,30,72,42,11,30.06,30.00,29.92,10,10,10,24,11,32,0.00,0,,322
2013-6-18,84,69,53,52,47,35,93,56,18,30.02,29.96,29.88,10,10,10,26,14,33,0.00,2,,324
2013-6-19,86,68,50,46,41,37,83,51,19,30.02,29.96,29.89,10,10,10,24,12,30,0.00,0,,318
2013-6-20,90,70,50,44,39,30,71,42,13,29.98,29.92,29.85,10,10,10,24,10,38,0.00,0,,317
2013-6-21,93,72,51,46,40,30,83,47,11,29.96,29.90,29.83,10,10,10,21,8,25,0.00,0,,311
2013-6-22,95,73,50,47,40,32,86,49,12,29.93,29.86,29.78,10,10,10,24,7,29,0.00,0,,305
2013-6-23,83,69,54,54,50,41,93,59,24,29.88,29.84,29.78,10,10,10,21,11,28,0.00,0,,292
2013-6-24,77,66,55,57,55,51,90,70,50,29.93,29.87,29.81,10,10,10,20,9,23,0.00,3,,195
2013-6-25,88,72,55,60,55,47,93,62,31,29.99,29.94,29.90,10,10,10,20,7,18,0.00,2,,218
2013-6-26,99,81,62,61,58,51,93,58,22,30.05,29.97,29.88,10,10,10,18,8,23,0.00,2,,314
2013-6-27,104,85,65,59,56,51,78,48,18,30.04,29.99,29.93,10,10,10,16,7,,0.00,0,,292
2013-6-28,108,87,66,53,51,46,57,36,15,30.01,29.93,29.83,10,10,10,32,6,60,0.00,0,,296
2013-6-29,111,88,65,51,44,35,52,30,8,29.91,29.83,29.73,10,10,10,17,8,17,0.00,0,,322
2013-6-30,110,87,64,51,46,40,60,35,10,29.83,29.77,29.69,10,10,10,20,8,30,0.00,0,,318